sensor_id;sensor_type;location;lat;lon;timestamp;P1;durP1;ratioP1;P2;durP2;ratioP2
13933;SDS011;7039;52.168;9.866;2023-09-30T00:01:38;13.70;;;3.97;;
13933;SDS011;7039;52.168;9.866;2023-09-30T00:04:05;10.20;;;3.87;;
13933;SDS011;7039;52.168;9.866;2023-09-30T00:06:32;21.10;;;4.37;;
13933;SDS011;7039;52.168;9.866;2023-09-30T00:09:00;15.47;;;4.50;;
13933;SDS011;7039;52.168;9.866;2023-09-30T00:11:27;14.53;;;3.93;;
13933;SDS011;7039;52.168;9.866;2023-09-30T00:13:53;14.13;;;3.90;;
13933;SDS011;7039;52.168;9.866;2023-09-30T00:16:20;16.90;;;3.90;;
13933;SDS011;7039;52.168;9.866;2023-09-30T00:18:46;15.80;;;4.97;;
13933;SDS011;7039;52.168;9.866;2023-09-30T00:21:13;18.17;;;4.60;;
13933;SDS011;7039;52.168;9.866;2023-09-30T00:23:40;15.60;;;4.13;;
13933;SDS011;7039;52.168;9.866;2023-09-30T00:26:08;13.07;;;4.47;;
13933;SDS011;7039;52.168;9.866;2023-09-30T00:28:34;10.63;;;3.83;;
13933;SDS011;7039;52.168;9.866;2023-09-30T00:31:00;13.70;;;4.03;;
13933;SDS011;7039;52.168;9.866;2023-09-30T00:33:27;18.03;;;3.87;;
13933;SDS011;7039;52.168;9.866;2023-09-30T00:35:53;17.57;;;3.90;;
13933;SDS011;7039;52.168;9.866;2023-09-30T00:38:20;19.17;;;4.43;;
13933;SDS011;7039;52.168;9.866;2023-09-30T00:40:48;14.87;;;4.43;;
13933;SDS011;7039;52.168;9.866;2023-09-30T00:43:20;16.63;;;4.80;;
13933;SDS011;7039;52.168;9.866;2023-09-30T00:45:47;19.50;;;4.83;;
13933;SDS011;7039;52.168;9.866;2023-09-30T00:48:15;14.47;;;5.10;;
13933;SDS011;7039;52.168;9.866;2023-09-30T00:50:42;14.73;;;5.13;;
13933;SDS011;7039;52.168;9.866;2023-09-30T00:53:09;17.57;;;5.33;;
13933;SDS011;7039;52.168;9.866;2023-09-30T00:55:36;14.77;;;5.47;;
13933;SDS011;7039;52.168;9.866;2023-09-30T00:58:03;17.90;;;5.73;;
13933;SDS011;7039;52.168;9.866;2023-09-30T01:00:31;20.70;;;6.43;;
13933;SDS011;7039;52.168;9.866;2023-09-30T01:02:58;15.70;;;5.50;;
13933;SDS011;7039;52.168;9.866;2023-09-30T01:05:28;18.53;;;6.07;;
13933;SDS011;7039;52.168;9.866;2023-09-30T01:07:55;21.63;;;6.30;;
13933;SDS011;7039;52.168;9.866;2023-09-30T01:10:22;18.83;;;5.60;;
13933;SDS011;7039;52.168;9.866;2023-09-30T01:12:48;16.67;;;5.23;;
13933;SDS011;7039;52.168;9.866;2023-09-30T01:15:15;25.20;;;6.37;;
13933;SDS011;7039;52.168;9.866;2023-09-30T01:17:43;25.37;;;5.60;;
13933;SDS011;7039;52.168;9.866;2023-09-30T01:20:10;15.20;;;5.27;;
13933;SDS011;7039;52.168;9.866;2023-09-30T01:22:46;18.07;;;5.87;;
13933;SDS011;7039;52.168;9.866;2023-09-30T01:25:12;17.87;;;5.67;;
13933;SDS011;7039;52.168;9.866;2023-09-30T01:27:39;14.03;;;6.13;;
13933;SDS011;7039;52.168;9.866;2023-09-30T01:30:05;15.70;;;5.67;;
13933;SDS011;7039;52.168;9.866;2023-09-30T01:32:35;19.07;;;5.80;;
13933;SDS011;7039;52.168;9.866;2023-09-30T01:35:02;22.70;;;7.00;;
13933;SDS011;7039;52.168;9.866;2023-09-30T01:37:29;15.83;;;6.13;;
13933;SDS011;7039;52.168;9.866;2023-09-30T01:39:57;19.87;;;6.37;;
13933;SDS011;7039;52.168;9.866;2023-09-30T01:42:23;21.17;;;6.87;;
13933;SDS011;7039;52.168;9.866;2023-09-30T01:44:51;26.97;;;7.03;;
13933;SDS011;7039;52.168;9.866;2023-09-30T01:47:18;19.83;;;6.53;;
13933;SDS011;7039;52.168;9.866;2023-09-30T01:49:44;19.13;;;6.23;;
13933;SDS011;7039;52.168;9.866;2023-09-30T01:52:11;19.20;;;6.57;;
13933;SDS011;7039;52.168;9.866;2023-09-30T01:54:38;24.13;;;6.50;;
13933;SDS011;7039;52.168;9.866;2023-09-30T01:57:06;27.80;;;6.57;;
13933;SDS011;7039;52.168;9.866;2023-09-30T01:59:32;19.43;;;6.50;;
13933;SDS011;7039;52.168;9.866;2023-09-30T02:01:59;21.80;;;6.93;;
13933;SDS011;7039;52.168;9.866;2023-09-30T02:04:27;25.17;;;6.30;;
13933;SDS011;7039;52.168;9.866;2023-09-30T02:06:54;20.60;;;6.70;;
13933;SDS011;7039;52.168;9.866;2023-09-30T02:09:21;22.77;;;5.57;;
13933;SDS011;7039;52.168;9.866;2023-09-30T02:11:47;20.17;;;5.97;;
13933;SDS011;7039;52.168;9.866;2023-09-30T02:14:15;25.03;;;5.90;;
13933;SDS011;7039;52.168;9.866;2023-09-30T02:16:42;21.27;;;6.07;;
13933;SDS011;7039;52.168;9.866;2023-09-30T02:19:08;16.00;;;5.27;;
13933;SDS011;7039;52.168;9.866;2023-09-30T02:21:35;19.80;;;6.00;;
13933;SDS011;7039;52.168;9.866;2023-09-30T02:24:02;15.83;;;5.40;;
13933;SDS011;7039;52.168;9.866;2023-09-30T02:26:31;27.23;;;5.67;;
13933;SDS011;7039;52.168;9.866;2023-09-30T02:28:58;26.50;;;6.17;;
13933;SDS011;7039;52.168;9.866;2023-09-30T02:31:26;28.00;;;6.07;;
13933;SDS011;7039;52.168;9.866;2023-09-30T02:33:52;23.73;;;6.40;;
13933;SDS011;7039;52.168;9.866;2023-09-30T02:36:19;27.97;;;6.23;;
13933;SDS011;7039;52.168;9.866;2023-09-30T02:38:45;19.27;;;5.90;;
13933;SDS011;7039;52.168;9.866;2023-09-30T02:41:12;16.77;;;5.40;;
13933;SDS011;7039;52.168;9.866;2023-09-30T02:43:38;20.53;;;6.33;;
13933;SDS011;7039;52.168;9.866;2023-09-30T02:46:05;15.27;;;5.10;;
13933;SDS011;7039;52.168;9.866;2023-09-30T02:48:34;19.27;;;6.53;;
13933;SDS011;7039;52.168;9.866;2023-09-30T02:51:01;23.20;;;6.30;;
13933;SDS011;7039;52.168;9.866;2023-09-30T02:53:27;14.90;;;5.03;;
13933;SDS011;7039;52.168;9.866;2023-09-30T02:55:54;18.30;;;6.23;;
13933;SDS011;7039;52.168;9.866;2023-09-30T02:58:21;19.37;;;5.73;;
13933;SDS011;7039;52.168;9.866;2023-09-30T03:00:48;15.40;;;5.37;;
13933;SDS011;7039;52.168;9.866;2023-09-30T03:03:15;17.10;;;5.13;;
13933;SDS011;7039;52.168;9.866;2023-09-30T03:05:43;20.30;;;6.10;;
13933;SDS011;7039;52.168;9.866;2023-09-30T03:08:10;27.57;;;6.90;;
13933;SDS011;7039;52.168;9.866;2023-09-30T03:10:37;18.23;;;5.93;;
13933;SDS011;7039;52.168;9.866;2023-09-30T03:13:05;22.03;;;5.13;;
13933;SDS011;7039;52.168;9.866;2023-09-30T03:15:33;16.80;;;5.73;;
13933;SDS011;7039;52.168;9.866;2023-09-30T03:18:00;21.57;;;5.70;;
13933;SDS011;7039;52.168;9.866;2023-09-30T03:20:28;28.90;;;5.67;;
13933;SDS011;7039;52.168;9.866;2023-09-30T03:22:57;16.77;;;5.37;;
13933;SDS011;7039;52.168;9.866;2023-09-30T03:25:24;18.67;;;5.20;;
13933;SDS011;7039;52.168;9.866;2023-09-30T03:27:51;22.07;;;5.80;;
13933;SDS011;7039;52.168;9.866;2023-09-30T03:30:17;16.73;;;5.07;;
13933;SDS011;7039;52.168;9.866;2023-09-30T03:32:45;19.60;;;5.30;;
13933;SDS011;7039;52.168;9.866;2023-09-30T03:35:11;20.53;;;5.60;;
13933;SDS011;7039;52.168;9.866;2023-09-30T03:37:41;12.73;;;5.27;;
13933;SDS011;7039;52.168;9.866;2023-09-30T03:40:10;18.20;;;5.67;;
13933;SDS011;7039;52.168;9.866;2023-09-30T03:42:38;19.83;;;5.77;;
13933;SDS011;7039;52.168;9.866;2023-09-30T03:45:05;23.67;;;5.50;;
13933;SDS011;7039;52.168;9.866;2023-09-30T03:47:34;16.40;;;5.10;;
13933;SDS011;7039;52.168;9.866;2023-09-30T03:50:01;26.87;;;6.17;;
13933;SDS011;7039;52.168;9.866;2023-09-30T03:52:29;15.83;;;5.13;;
13933;SDS011;7039;52.168;9.866;2023-09-30T03:54:58;13.83;;;5.17;;
13933;SDS011;7039;52.168;9.866;2023-09-30T03:57:26;21.87;;;5.30;;
13933;SDS011;7039;52.168;9.866;2023-09-30T03:59:53;19.07;;;4.97;;
13933;SDS011;7039;52.168;9.866;2023-09-30T04:02:19;27.07;;;6.43;;
13933;SDS011;7039;52.168;9.866;2023-09-30T04:04:46;20.03;;;4.67;;
13933;SDS011;7039;52.168;9.866;2023-09-30T04:07:14;13.73;;;4.80;;
13933;SDS011;7039;52.168;9.866;2023-09-30T04:09:42;21.70;;;5.33;;
13933;SDS011;7039;52.168;9.866;2023-09-30T04:12:08;20.10;;;5.10;;
13933;SDS011;7039;52.168;9.866;2023-09-30T04:14:36;19.60;;;4.37;;
13933;SDS011;7039;52.168;9.866;2023-09-30T04:17:02;23.33;;;4.60;;
13933;SDS011;7039;52.168;9.866;2023-09-30T04:19:29;26.77;;;5.57;;
13933;SDS011;7039;52.168;9.866;2023-09-30T04:21:56;23.23;;;5.37;;
13933;SDS011;7039;52.168;9.866;2023-09-30T04:24:22;14.23;;;4.73;;
13933;SDS011;7039;52.168;9.866;2023-09-30T04:26:49;16.70;;;4.77;;
13933;SDS011;7039;52.168;9.866;2023-09-30T04:29:22;19.90;;;4.80;;
13933;SDS011;7039;52.168;9.866;2023-09-30T04:31:49;12.07;;;3.50;;
13933;SDS011;7039;52.168;9.866;2023-09-30T04:34:17;16.17;;;4.70;;
13933;SDS011;7039;52.168;9.866;2023-09-30T04:36:44;19.33;;;5.20;;
13933;SDS011;7039;52.168;9.866;2023-09-30T04:39:10;19.77;;;3.67;;
13933;SDS011;7039;52.168;9.866;2023-09-30T04:41:37;12.17;;;3.93;;
13933;SDS011;7039;52.168;9.866;2023-09-30T04:44:06;19.83;;;4.00;;
13933;SDS011;7039;52.168;9.866;2023-09-30T04:46:34;17.10;;;4.60;;
13933;SDS011;7039;52.168;9.866;2023-09-30T04:49:02;25.33;;;4.40;;
13933;SDS011;7039;52.168;9.866;2023-09-30T04:51:29;14.93;;;4.70;;
13933;SDS011;7039;52.168;9.866;2023-09-30T04:53:58;17.50;;;4.20;;
13933;SDS011;7039;52.168;9.866;2023-09-30T04:56:24;13.33;;;4.07;;
13933;SDS011;7039;52.168;9.866;2023-09-30T04:58:51;17.23;;;4.47;;
13933;SDS011;7039;52.168;9.866;2023-09-30T05:01:17;18.13;;;4.53;;
13933;SDS011;7039;52.168;9.866;2023-09-30T05:03:44;14.83;;;4.03;;
13933;SDS011;7039;52.168;9.866;2023-09-30T05:06:15;15.57;;;3.87;;
13933;SDS011;7039;52.168;9.866;2023-09-30T05:08:42;13.40;;;4.60;;
13933;SDS011;7039;52.168;9.866;2023-09-30T05:11:08;9.63;;;3.40;;
13933;SDS011;7039;52.168;9.866;2023-09-30T05:13:35;17.73;;;4.37;;
13933;SDS011;7039;52.168;9.866;2023-09-30T05:16:02;13.73;;;4.30;;
13933;SDS011;7039;52.168;9.866;2023-09-30T05:18:28;15.30;;;3.80;;
13933;SDS011;7039;52.168;9.866;2023-09-30T05:20:55;17.13;;;3.93;;
13933;SDS011;7039;52.168;9.866;2023-09-30T05:23:23;12.30;;;3.63;;
13933;SDS011;7039;52.168;9.866;2023-09-30T05:25:49;18.73;;;4.60;;
13933;SDS011;7039;52.168;9.866;2023-09-30T05:28:16;17.83;;;4.63;;
13933;SDS011;7039;52.168;9.866;2023-09-30T05:30:42;14.23;;;3.77;;
13933;SDS011;7039;52.168;9.866;2023-09-30T05:33:10;10.63;;;4.23;;
13933;SDS011;7039;52.168;9.866;2023-09-30T05:35:39;18.43;;;4.97;;
13933;SDS011;7039;52.168;9.866;2023-09-30T05:38:06;16.10;;;4.43;;
13933;SDS011;7039;52.168;9.866;2023-09-30T05:40:34;12.37;;;3.33;;
13933;SDS011;7039;52.168;9.866;2023-09-30T05:43:01;11.80;;;4.23;;
13933;SDS011;7039;52.168;9.866;2023-09-30T05:45:30;16.57;;;3.87;;
13933;SDS011;7039;52.168;9.866;2023-09-30T05:47:59;15.83;;;3.83;;
13933;SDS011;7039;52.168;9.866;2023-09-30T05:50:30;19.57;;;4.17;;
13933;SDS011;7039;52.168;9.866;2023-09-30T05:52:59;20.97;;;4.33;;
13933;SDS011;7039;52.168;9.866;2023-09-30T05:55:25;15.77;;;4.17;;
13933;SDS011;7039;52.168;9.866;2023-09-30T05:57:54;18.10;;;4.53;;
13933;SDS011;7039;52.168;9.866;2023-09-30T06:00:20;23.50;;;4.37;;
13933;SDS011;7039;52.168;9.866;2023-09-30T06:02:47;23.17;;;4.97;;
13933;SDS011;7039;52.168;9.866;2023-09-30T06:05:14;19.03;;;5.00;;
13933;SDS011;7039;52.168;9.866;2023-09-30T06:07:43;17.43;;;4.27;;
13933;SDS011;7039;52.168;9.866;2023-09-30T06:10:10;16.83;;;3.80;;
13933;SDS011;7039;52.168;9.866;2023-09-30T06:12:37;21.97;;;5.03;;
13933;SDS011;7039;52.168;9.866;2023-09-30T06:15:06;17.17;;;4.40;;
13933;SDS011;7039;52.168;9.866;2023-09-30T06:17:33;14.93;;;4.47;;
13933;SDS011;7039;52.168;9.866;2023-09-30T06:19:59;16.17;;;5.07;;
13933;SDS011;7039;52.168;9.866;2023-09-30T06:22:33;25.13;;;4.60;;
13933;SDS011;7039;52.168;9.866;2023-09-30T06:25:00;16.47;;;4.60;;
13933;SDS011;7039;52.168;9.866;2023-09-30T06:27:27;19.80;;;4.63;;
13933;SDS011;7039;52.168;9.866;2023-09-30T06:29:54;17.63;;;4.23;;
13933;SDS011;7039;52.168;9.866;2023-09-30T06:32:22;16.23;;;4.47;;
13933;SDS011;7039;52.168;9.866;2023-09-30T06:34:48;18.30;;;4.23;;
13933;SDS011;7039;52.168;9.866;2023-09-30T06:37:15;15.27;;;4.40;;
13933;SDS011;7039;52.168;9.866;2023-09-30T06:39:43;18.57;;;4.83;;
13933;SDS011;7039;52.168;9.866;2023-09-30T06:42:10;14.23;;;4.80;;
13933;SDS011;7039;52.168;9.866;2023-09-30T06:44:36;17.40;;;4.57;;
13933;SDS011;7039;52.168;9.866;2023-09-30T06:47:03;20.90;;;4.67;;
13933;SDS011;7039;52.168;9.866;2023-09-30T06:49:33;12.63;;;4.63;;
13933;SDS011;7039;52.168;9.866;2023-09-30T06:51:59;15.47;;;4.37;;
13933;SDS011;7039;52.168;9.866;2023-09-30T06:54:28;20.17;;;5.10;;
13933;SDS011;7039;52.168;9.866;2023-09-30T06:56:54;22.50;;;5.27;;
13933;SDS011;7039;52.168;9.866;2023-09-30T06:59:21;24.30;;;5.00;;
13933;SDS011;7039;52.168;9.866;2023-09-30T07:01:47;19.90;;;5.03;;
13933;SDS011;7039;52.168;9.866;2023-09-30T07:04:14;19.27;;;5.43;;
13933;SDS011;7039;52.168;9.866;2023-09-30T07:06:41;21.43;;;5.40;;
13933;SDS011;7039;52.168;9.866;2023-09-30T07:09:08;14.40;;;3.90;;
13933;SDS011;7039;52.168;9.866;2023-09-30T07:11:35;21.03;;;4.67;;
13933;SDS011;7039;52.168;9.866;2023-09-30T07:14:02;15.13;;;4.30;;
13933;SDS011;7039;52.168;9.866;2023-09-30T07:16:28;19.10;;;4.67;;
13933;SDS011;7039;52.168;9.866;2023-09-30T07:18:55;13.53;;;4.33;;
13933;SDS011;7039;52.168;9.866;2023-09-30T07:21:22;12.87;;;3.77;;
13933;SDS011;7039;52.168;9.866;2023-09-30T07:23:50;12.10;;;4.17;;
13933;SDS011;7039;52.168;9.866;2023-09-30T07:26:17;12.97;;;4.63;;
13933;SDS011;7039;52.168;9.866;2023-09-30T07:28:49;13.03;;;4.43;;
13933;SDS011;7039;52.168;9.866;2023-09-30T07:31:15;12.03;;;3.90;;
13933;SDS011;7039;52.168;9.866;2023-09-30T07:33:42;12.00;;;4.20;;
13933;SDS011;7039;52.168;9.866;2023-09-30T07:36:08;14.47;;;4.63;;
13933;SDS011;7039;52.168;9.866;2023-09-30T07:38:35;10.97;;;4.20;;
13933;SDS011;7039;52.168;9.866;2023-09-30T07:41:03;22.87;;;4.90;;
13933;SDS011;7039;52.168;9.866;2023-09-30T07:43:30;13.77;;;4.33;;
13933;SDS011;7039;52.168;9.866;2023-09-30T07:45:56;12.03;;;4.37;;
13933;SDS011;7039;52.168;9.866;2023-09-30T07:48:24;17.73;;;5.37;;
13933;SDS011;7039;52.168;9.866;2023-09-30T07:50:51;15.27;;;4.17;;
13933;SDS011;7039;52.168;9.866;2023-09-30T07:53:17;15.23;;;4.33;;
13933;SDS011;7039;52.168;9.866;2023-09-30T07:55:44;23.13;;;4.90;;
13933;SDS011;7039;52.168;9.866;2023-09-30T07:58:11;15.13;;;4.23;;
13933;SDS011;7039;52.168;9.866;2023-09-30T08:00:38;13.37;;;3.80;;
13933;SDS011;7039;52.168;9.866;2023-09-30T08:03:04;17.47;;;4.40;;
13933;SDS011;7039;52.168;9.866;2023-09-30T08:05:31;17.73;;;5.00;;
13933;SDS011;7039;52.168;9.866;2023-09-30T08:07:57;16.00;;;4.30;;
13933;SDS011;7039;52.168;9.866;2023-09-30T08:10:26;17.60;;;4.47;;
13933;SDS011;7039;52.168;9.866;2023-09-30T08:12:54;18.37;;;4.87;;
13933;SDS011;7039;52.168;9.866;2023-09-30T08:15:24;18.20;;;4.43;;
13933;SDS011;7039;52.168;9.866;2023-09-30T08:17:50;17.60;;;4.90;;
13933;SDS011;7039;52.168;9.866;2023-09-30T08:20:17;17.00;;;4.77;;
13933;SDS011;7039;52.168;9.866;2023-09-30T08:22:43;15.27;;;5.23;;
13933;SDS011;7039;52.168;9.866;2023-09-30T08:25:10;17.40;;;5.03;;
13933;SDS011;7039;52.168;9.866;2023-09-30T08:27:37;19.20;;;4.47;;
13933;SDS011;7039;52.168;9.866;2023-09-30T08:30:04;16.57;;;4.67;;
13933;SDS011;7039;52.168;9.866;2023-09-30T08:32:34;17.87;;;4.57;;
13933;SDS011;7039;52.168;9.866;2023-09-30T08:35:01;15.30;;;4.30;;
13933;SDS011;7039;52.168;9.866;2023-09-30T08:37:28;23.60;;;4.70;;
13933;SDS011;7039;52.168;9.866;2023-09-30T08:39:54;15.17;;;4.60;;
13933;SDS011;7039;52.168;9.866;2023-09-30T08:42:21;16.80;;;4.70;;
13933;SDS011;7039;52.168;9.866;2023-09-30T08:44:49;18.43;;;4.33;;
13933;SDS011;7039;52.168;9.866;2023-09-30T08:47:19;16.67;;;3.97;;
13933;SDS011;7039;52.168;9.866;2023-09-30T08:49:48;22.13;;;5.73;;
13933;SDS011;7039;52.168;9.866;2023-09-30T08:52:20;17.80;;;5.07;;
13933;SDS011;7039;52.168;9.866;2023-09-30T08:54:47;18.97;;;4.80;;
13933;SDS011;7039;52.168;9.866;2023-09-30T08:57:13;16.37;;;4.97;;
13933;SDS011;7039;52.168;9.866;2023-09-30T08:59:44;18.73;;;5.40;;
13933;SDS011;7039;52.168;9.866;2023-09-30T09:02:14;13.47;;;4.20;;
13933;SDS011;7039;52.168;9.866;2023-09-30T09:04:41;13.83;;;3.67;;
13933;SDS011;7039;52.168;9.866;2023-09-30T09:07:10;12.47;;;3.60;;
13933;SDS011;7039;52.168;9.866;2023-09-30T09:09:36;14.23;;;4.37;;
13933;SDS011;7039;52.168;9.866;2023-09-30T09:12:03;10.53;;;3.40;;
13933;SDS011;7039;52.168;9.866;2023-09-30T09:14:36;16.10;;;4.30;;
13933;SDS011;7039;52.168;9.866;2023-09-30T09:17:04;11.80;;;3.63;;
13933;SDS011;7039;52.168;9.866;2023-09-30T09:19:33;11.83;;;4.63;;
13933;SDS011;7039;52.168;9.866;2023-09-30T09:21:59;20.53;;;3.63;;
13933;SDS011;7039;52.168;9.866;2023-09-30T09:24:31;12.70;;;3.00;;
13933;SDS011;7039;52.168;9.866;2023-09-30T09:27:05;13.20;;;3.17;;
13933;SDS011;7039;52.168;9.866;2023-09-30T09:29:35;11.33;;;3.00;;
13933;SDS011;7039;52.168;9.866;2023-09-30T09:32:09;9.63;;;2.60;;
13933;SDS011;7039;52.168;9.866;2023-09-30T09:34:36;11.67;;;2.70;;
13933;SDS011;7039;52.168;9.866;2023-09-30T09:37:13;14.10;;;2.80;;
13933;SDS011;7039;52.168;9.866;2023-09-30T09:39:49;11.40;;;2.73;;
13933;SDS011;7039;52.168;9.866;2023-09-30T09:42:26;7.73;;;2.80;;
13933;SDS011;7039;52.168;9.866;2023-09-30T09:44:55;11.00;;;3.10;;
13933;SDS011;7039;52.168;9.866;2023-09-30T09:47:23;14.07;;;3.10;;
13933;SDS011;7039;52.168;9.866;2023-09-30T09:49:50;11.87;;;2.80;;
13933;SDS011;7039;52.168;9.866;2023-09-30T09:52:17;10.80;;;2.93;;
13933;SDS011;7039;52.168;9.866;2023-09-30T09:54:45;9.07;;;2.83;;
13933;SDS011;7039;52.168;9.866;2023-09-30T09:57:13;13.27;;;2.67;;
13933;SDS011;7039;52.168;9.866;2023-09-30T09:59:42;9.93;;;2.93;;
13933;SDS011;7039;52.168;9.866;2023-09-30T10:02:10;8.80;;;2.53;;
13933;SDS011;7039;52.168;9.866;2023-09-30T10:04:39;8.43;;;2.77;;
13933;SDS011;7039;52.168;9.866;2023-09-30T10:07:07;12.57;;;3.00;;
13933;SDS011;7039;52.168;9.866;2023-09-30T10:09:38;8.23;;;3.17;;
13933;SDS011;7039;52.168;9.866;2023-09-30T10:12:07;10.07;;;2.70;;
13933;SDS011;7039;52.168;9.866;2023-09-30T10:14:35;14.30;;;3.20;;
13933;SDS011;7039;52.168;9.866;2023-09-30T10:17:02;12.07;;;2.57;;
13933;SDS011;7039;52.168;9.866;2023-09-30T10:19:29;10.97;;;2.60;;
13933;SDS011;7039;52.168;9.866;2023-09-30T10:24:51;10.57;;;2.23;;
13933;SDS011;7039;52.168;9.866;2023-09-30T10:27:31;8.53;;;2.40;;
13933;SDS011;7039;52.168;9.866;2023-09-30T10:30:05;12.30;;;3.00;;
13933;SDS011;7039;52.168;9.866;2023-09-30T10:35:43;9.63;;;2.50;;
13933;SDS011;7039;52.168;9.866;2023-09-30T10:41:05;11.53;;;2.10;;
13933;SDS011;7039;52.168;9.866;2023-09-30T10:43:33;10.87;;;2.47;;
13933;SDS011;7039;52.168;9.866;2023-09-30T10:46:02;7.13;;;2.13;;
13933;SDS011;7039;52.168;9.866;2023-09-30T10:48:35;9.37;;;2.10;;
13933;SDS011;7039;52.168;9.866;2023-09-30T10:53:46;6.30;;;1.90;;
13933;SDS011;7039;52.168;9.866;2023-09-30T10:56:16;8.00;;;2.47;;
13933;SDS011;7039;52.168;9.866;2023-09-30T10:58:43;12.80;;;2.70;;
13933;SDS011;7039;52.168;9.866;2023-09-30T11:01:13;5.07;;;1.63;;
13933;SDS011;7039;52.168;9.866;2023-09-30T11:03:41;8.40;;;1.47;;
13933;SDS011;7039;52.168;9.866;2023-09-30T11:06:10;5.10;;;1.50;;
13933;SDS011;7039;52.168;9.866;2023-09-30T11:08:39;7.77;;;2.00;;
13933;SDS011;7039;52.168;9.866;2023-09-30T11:11:07;6.70;;;2.00;;
13933;SDS011;7039;52.168;9.866;2023-09-30T11:13:34;7.23;;;2.03;;
13933;SDS011;7039;52.168;9.866;2023-09-30T11:16:01;10.07;;;1.97;;
13933;SDS011;7039;52.168;9.866;2023-09-30T11:18:31;7.23;;;2.00;;
13933;SDS011;7039;52.168;9.866;2023-09-30T11:21:05;6.37;;;1.97;;
13933;SDS011;7039;52.168;9.866;2023-09-30T11:23:33;8.23;;;2.30;;
13933;SDS011;7039;52.168;9.866;2023-09-30T11:26:00;8.47;;;2.17;;
13933;SDS011;7039;52.168;9.866;2023-09-30T11:28:34;10.17;;;1.83;;
13933;SDS011;7039;52.168;9.866;2023-09-30T11:31:02;5.70;;;2.17;;
13933;SDS011;7039;52.168;9.866;2023-09-30T11:33:32;9.57;;;2.30;;
13933;SDS011;7039;52.168;9.866;2023-09-30T11:36:00;4.17;;;1.83;;
13933;SDS011;7039;52.168;9.866;2023-09-30T11:38:28;8.07;;;2.45;;
13933;SDS011;7039;52.168;9.866;2023-09-30T11:40:58;7.33;;;1.80;;
13933;SDS011;7039;52.168;9.866;2023-09-30T11:43:26;4.93;;;1.83;;
13933;SDS011;7039;52.168;9.866;2023-09-30T11:45:52;6.70;;;1.90;;
13933;SDS011;7039;52.168;9.866;2023-09-30T11:48:19;7.57;;;1.93;;
13933;SDS011;7039;52.168;9.866;2023-09-30T11:50:48;5.30;;;1.90;;
13933;SDS011;7039;52.168;9.866;2023-09-30T11:53:15;7.87;;;2.20;;
13933;SDS011;7039;52.168;9.866;2023-09-30T11:55:43;5.97;;;1.80;;
13933;SDS011;7039;52.168;9.866;2023-09-30T11:58:09;3.93;;;1.50;;
13933;SDS011;7039;52.168;9.866;2023-09-30T12:00:40;4.43;;;1.47;;
13933;SDS011;7039;52.168;9.866;2023-09-30T12:03:07;3.87;;;1.70;;
13933;SDS011;7039;52.168;9.866;2023-09-30T12:05:35;4.17;;;1.50;;
13933;SDS011;7039;52.168;9.866;2023-09-30T12:08:04;6.20;;;1.87;;
13933;SDS011;7039;52.168;9.866;2023-09-30T12:10:31;4.67;;;1.63;;
13933;SDS011;7039;52.168;9.866;2023-09-30T12:12:58;3.87;;;1.60;;
13933;SDS011;7039;52.168;9.866;2023-09-30T12:15:24;5.73;;;1.90;;
13933;SDS011;7039;52.168;9.866;2023-09-30T12:17:52;5.47;;;1.80;;
13933;SDS011;7039;52.168;9.866;2023-09-30T12:20:18;4.80;;;2.10;;
13933;SDS011;7039;52.168;9.866;2023-09-30T12:22:45;7.40;;;2.83;;
13933;SDS011;7039;52.168;9.866;2023-09-30T12:25:13;6.63;;;2.10;;
13933;SDS011;7039;52.168;9.866;2023-09-30T12:27:39;8.57;;;2.10;;
13933;SDS011;7039;52.168;9.866;2023-09-30T12:30:06;7.37;;;2.03;;
13933;SDS011;7039;52.168;9.866;2023-09-30T12:32:33;7.47;;;1.60;;
13933;SDS011;7039;52.168;9.866;2023-09-30T12:34:59;4.73;;;1.83;;
13933;SDS011;7039;52.168;9.866;2023-09-30T12:37:27;5.43;;;2.30;;
13933;SDS011;7039;52.168;9.866;2023-09-30T12:39:54;7.30;;;1.93;;
13933;SDS011;7039;52.168;9.866;2023-09-30T12:42:22;6.03;;;2.13;;
13933;SDS011;7039;52.168;9.866;2023-09-30T12:44:48;5.30;;;2.37;;
13933;SDS011;7039;52.168;9.866;2023-09-30T12:47:15;9.13;;;2.03;;
13933;SDS011;7039;52.168;9.866;2023-09-30T12:49:41;4.93;;;2.13;;
13933;SDS011;7039;52.168;9.866;2023-09-30T12:52:07;7.30;;;1.97;;
13933;SDS011;7039;52.168;9.866;2023-09-30T12:54:34;3.73;;;1.90;;
13933;SDS011;7039;52.168;9.866;2023-09-30T12:57:01;7.23;;;2.13;;
13933;SDS011;7039;52.168;9.866;2023-09-30T12:59:29;8.80;;;2.60;;
13933;SDS011;7039;52.168;9.866;2023-09-30T13:01:55;4.57;;;2.20;;
13933;SDS011;7039;52.168;9.866;2023-09-30T13:04:22;7.13;;;2.10;;
13933;SDS011;7039;52.168;9.866;2023-09-30T13:06:50;7.57;;;2.20;;
13933;SDS011;7039;52.168;9.866;2023-09-30T13:09:16;7.83;;;2.13;;
13933;SDS011;7039;52.168;9.866;2023-09-30T13:11:45;4.83;;;1.90;;
13933;SDS011;7039;52.168;9.866;2023-09-30T13:14:11;5.20;;;1.90;;
13933;SDS011;7039;52.168;9.866;2023-09-30T13:16:40;4.80;;;1.93;;
13933;SDS011;7039;52.168;9.866;2023-09-30T13:19:06;6.77;;;2.53;;
13933;SDS011;7039;52.168;9.866;2023-09-30T13:21:33;10.83;;;2.30;;
13933;SDS011;7039;52.168;9.866;2023-09-30T13:23:59;5.60;;;1.80;;
13933;SDS011;7039;52.168;9.866;2023-09-30T13:26:25;4.43;;;1.73;;
13933;SDS011;7039;52.168;9.866;2023-09-30T13:28:52;5.70;;;2.13;;
13933;SDS011;7039;52.168;9.866;2023-09-30T13:31:18;11.17;;;2.93;;
13933;SDS011;7039;52.168;9.866;2023-09-30T13:33:46;6.03;;;2.20;;
13933;SDS011;7039;52.168;9.866;2023-09-30T13:36:13;6.50;;;2.10;;
13933;SDS011;7039;52.168;9.866;2023-09-30T13:38:39;6.20;;;2.20;;
13933;SDS011;7039;52.168;9.866;2023-09-30T13:41:05;7.17;;;2.37;;
13933;SDS011;7039;52.168;9.866;2023-09-30T13:43:32;8.17;;;2.03;;
13933;SDS011;7039;52.168;9.866;2023-09-30T13:46:02;7.40;;;2.40;;
13933;SDS011;7039;52.168;9.866;2023-09-30T13:48:31;7.17;;;2.00;;
13933;SDS011;7039;52.168;9.866;2023-09-30T13:51:04;11.27;;;2.07;;
13933;SDS011;7039;52.168;9.866;2023-09-30T13:53:31;6.63;;;2.50;;
13933;SDS011;7039;52.168;9.866;2023-09-30T13:55:58;7.23;;;2.63;;
13933;SDS011;7039;52.168;9.866;2023-09-30T13:58:24;8.43;;;2.17;;
13933;SDS011;7039;52.168;9.866;2023-09-30T14:00:51;5.83;;;2.30;;
13933;SDS011;7039;52.168;9.866;2023-09-30T14:03:17;8.30;;;2.47;;
13933;SDS011;7039;52.168;9.866;2023-09-30T14:05:44;9.23;;;2.50;;
13933;SDS011;7039;52.168;9.866;2023-09-30T14:08:12;5.90;;;2.67;;
13933;SDS011;7039;52.168;9.866;2023-09-30T14:10:39;8.00;;;2.13;;
13933;SDS011;7039;52.168;9.866;2023-09-30T14:13:06;5.30;;;2.40;;
13933;SDS011;7039;52.168;9.866;2023-09-30T14:15:32;7.60;;;2.10;;
13933;SDS011;7039;52.168;9.866;2023-09-30T14:17:59;7.90;;;2.53;;
13933;SDS011;7039;52.168;9.866;2023-09-30T14:20:27;4.95;;;2.20;;
13933;SDS011;7039;52.168;9.866;2023-09-30T14:22:53;3.92;;;1.75;;
13933;SDS011;7039;52.168;9.866;2023-09-30T14:25:21;5.55;;;2.10;;
13933;SDS011;7039;52.168;9.866;2023-09-30T14:27:48;8.75;;;3.15;;
13933;SDS011;7039;52.168;9.866;2023-09-30T14:30:15;4.63;;;2.30;;
13933;SDS011;7039;52.168;9.866;2023-09-30T14:32:42;8.98;;;2.65;;
13933;SDS011;7039;52.168;9.866;2023-09-30T14:35:09;6.13;;;2.40;;
13933;SDS011;7039;52.168;9.866;2023-09-30T14:37:35;6.10;;;2.38;;
13933;SDS011;7039;52.168;9.866;2023-09-30T14:40:02;8.45;;;2.90;;
13933;SDS011;7039;52.168;9.866;2023-09-30T14:42:32;5.78;;;2.00;;
13933;SDS011;7039;52.168;9.866;2023-09-30T14:44:58;3.40;;;1.98;;
13933;SDS011;7039;52.168;9.866;2023-09-30T14:47:25;6.25;;;2.25;;
13933;SDS011;7039;52.168;9.866;2023-09-30T14:49:51;6.30;;;2.15;;
13933;SDS011;7039;52.168;9.866;2023-09-30T14:52:18;7.28;;;2.13;;
13933;SDS011;7039;52.168;9.866;2023-09-30T14:54:44;6.63;;;2.20;;
13933;SDS011;7039;52.168;9.866;2023-09-30T14:57:11;4.82;;;2.00;;
13933;SDS011;7039;52.168;9.866;2023-09-30T14:59:40;5.95;;;2.00;;
13933;SDS011;7039;52.168;9.866;2023-09-30T15:02:06;7.05;;;2.30;;
13933;SDS011;7039;52.168;9.866;2023-09-30T15:04:34;4.90;;;1.95;;
13933;SDS011;7039;52.168;9.866;2023-09-30T15:07:00;7.32;;;2.25;;